createdAt,value
2022-09-01T00:01:41.662Z,149590.97
2022-09-01T00:06:46.999Z,149596.16
2022-09-01T00:11:59.027Z,149571.59
2022-09-01T00:17:06.780Z,149558.69
2022-09-01T00:22:11.161Z,149572.91
2022-09-01T00:27:17.943Z,149605.19
2022-09-01T00:32:23.487Z,149590.97
2022-09-01T00:37:28.334Z,149571.59
2022-09-01T00:42:34.268Z,149562.59
2022-09-01T00:47:39.072Z,149543.22
2022-09-01T00:52:48.898Z,149517.34
2022-09-01T00:57:55.597Z,149510.94
2022-09-01T01:03:01.030Z,149473.47
2022-09-01T01:08:08.774Z,149463.16
2022-09-01T01:13:17.929Z,149447.69
2022-09-01T01:18:23.006Z,149434.72
2022-09-01T01:23:37.479Z,149405.03
2022-09-01T01:28:44.730Z,149402.47
2022-09-01T01:33:51.712Z,149390.84
2022-09-01T01:38:58.141Z,149386.94
2022-09-01T01:44:06.165Z,149397.28
2022-09-01T01:49:12.001Z,149388.28
2022-09-01T01:54:20.353Z,149372.78
2022-09-01T01:59:30.092Z,149367.63
2022-09-01T02:04:34.949Z,149361.16
2022-09-01T02:09:48.433Z,149348.28
2022-09-01T02:14:55.722Z,149363.75
2022-09-01T02:20:00.442Z,149380.53
2022-09-01T02:25:06.226Z,149383.09
2022-09-01T02:30:13.567Z,149367.63
2022-09-01T02:35:19.390Z,149383.09
2022-09-01T02:40:24.254Z,149368.91
2022-09-01T02:45:30.459Z,149368.91
2022-09-01T02:50:35.075Z,149363.75
2022-09-01T02:55:39.894Z,149375.34
2022-09-01T03:00:47.442Z,149356.03
2022-09-01T03:05:55.861Z,149350.84
2022-09-01T03:11:03.741Z,149345.72
2022-09-01T03:16:11.718Z,149314.72
2022-09-01T03:21:17.379Z,149303.13
2022-09-01T03:26:23.229Z,149282.47
2022-09-01T03:31:31.183Z,149290.19
2022-09-01T03:36:39.963Z,149282.47
2022-09-01T03:41:45.203Z,149282.47
2022-09-01T03:46:52.122Z,149260.56
2022-09-01T03:51:59.090Z,149292.81
2022-09-01T03:57:06.457Z,149272.16
2022-09-01T04:02:13.453Z,149297.94
2022-09-01T04:07:19.352Z,149285.06
2022-09-01T04:12:26.335Z,149287.63
2022-09-01T04:17:49.792Z,149287.63
2022-09-01T04:22:54.125Z,149266.97
2022-09-01T04:27:59.828Z,149297.94
2022-09-01T04:33:05.932Z,149313.44
2022-09-01T04:38:10.939Z,149327.63
2022-09-01T04:43:15.184Z,149308.25
2022-09-01T04:48:23.949Z,149322.44
2022-09-01T04:53:29.820Z,149344.38
2022-09-01T04:58:35.448Z,149340.53
2022-09-01T05:03:41.582Z,149372.78
2022-09-01T05:08:54.401Z,149353.41
2022-09-01T05:14:19.276Z,149375.34
2022-09-01T05:19:29.162Z,149446.38
2022-09-01T05:24:41.766Z,149443.81
2022-09-01T05:29:47.718Z,149527.69
2022-09-01T05:34:55.802Z,149561.31
2022-09-01T05:40:01.281Z,149549.63
2022-09-01T05:45:11.079Z,149612.91
2022-09-01T05:50:19.488Z,149654.25
2022-09-01T05:55:28.170Z,149656.81
2022-09-01T06:00:35.038Z,149667.16
2022-09-01T06:05:41.515Z,149700.72
2022-09-01T06:10:50.911Z,149775.69
2022-09-01T06:15:58.540Z,149817.06
2022-09-01T06:21:09.008Z,149875.19
2022-09-01T06:26:19.348Z,149977.31
2022-09-01T06:31:25.552Z,150070.44
2022-09-01T06:36:35.070Z,150391.31
2022-09-01T06:41:40.596Z,151067.72
2022-09-01T06:46:48.504Z,151044.31
2022-09-01T06:51:54.656Z,150975.63
2022-09-01T06:58:03.265Z,151223.34
2022-09-01T07:02:29.512Z,151568.69
2022-09-01T07:08:06.141Z,151854.50
2022-09-01T07:13:31.041Z,151582.94
2022-09-01T07:18:38.483Z,151322.03
2022-09-01T07:23:46.663Z,151254.47
2022-09-01T07:29:01.935Z,151280.50
2022-09-01T07:45:47.140Z,152368.28
2022-09-01T07:56:26.412Z,153772.59
2022-09-01T08:01:31.410Z,153579.28
2022-09-01T08:06:39.204Z,153122.59
2022-09-01T08:12:03.171Z,153160.47
2022-09-01T08:22:43.124Z,152872.38
2022-09-01T08:28:01.204Z,152615.66
2022-09-01T08:33:10.484Z,152393.03
2022-09-01T08:38:19.539Z,152102.88
2022-09-01T08:43:36.064Z,152135.41
2022-09-01T08:54:29.949Z,152104.19
2022-09-01T08:59:39.699Z,152036.53
2022-09-01T09:05:15.628Z,152104.19
2022-09-01T09:10:24.612Z,152135.41
2022-09-01T09:15:40.711Z,152026.13
2022-09-01T09:20:46.527Z,152257.66
2022-09-01T09:25:52.777Z,152340.97
2022-09-01T09:31:33.906Z,152391.75
2022-09-01T09:36:42.578Z,152428.16
2022-09-01T09:42:09.765Z,151980.63
2022-09-01T09:47:45.034Z,151668.66
2022-09-01T09:52:53.224Z,151532.34
2022-09-01T09:58:01.496Z,151844.09
2022-09-01T10:03:12.260Z,151712.88
2022-09-01T10:08:45.646Z,151579.06
2022-09-01T10:27:43.032Z,151799.94
2022-09-01T10:32:55.719Z,152005.31
2022-09-01T10:38:08.256Z,151923.47
2022-09-01T10:43:38.010Z,151745.34
2022-09-01T10:48:48.796Z,151901.38
2022-09-01T10:54:03.249Z,152333.16
2022-09-01T11:05:19.857Z,151744.06
2022-09-01T11:10:40.000Z,151515.44
2022-09-01T11:15:47.559Z,151555.72
2022-09-01T11:20:52.714Z,151783.06
2022-09-01T11:31:41.575Z,152053.47
2022-09-01T11:37:01.912Z,152258.94
2022-09-01T11:42:13.477Z,151901.38
2022-09-01T11:47:27.114Z,151855.84
2022-09-01T11:52:34.249Z,151976.75
2022-09-01T11:57:42.406Z,151721.97
2022-09-01T12:02:52.205Z,151689.47
2022-09-01T12:08:02.653Z,152177.03
2022-09-01T12:13:10.102Z,152187.44
2022-09-01T12:18:22.408Z,152143.22
2022-09-01T12:23:31.977Z,151937.75
2022-09-01T12:28:36.516Z,151802.56
2022-09-01T12:33:45.490Z,151546.63
2022-09-01T12:38:50.630Z,151683.00
2022-09-01T12:43:56.356Z,151669.97
2022-09-01T12:49:20.251Z,151671.31
2022-09-01T12:54:27.667Z,152043.06
2022-09-01T12:59:37.574Z,151937.75
2022-09-01T13:04:43.929Z,151766.16
2022-09-01T13:09:48.699Z,151641.41
2022-09-01T13:14:53.459Z,151914.34
2022-09-01T13:19:59.361Z,152130.22
2022-09-01T13:25:03.937Z,151809.03
2022-09-01T13:30:10.001Z,151486.84
2022-09-01T13:35:18.199Z,152216.06
2022-09-01T13:40:24.356Z,152577.91
2022-09-01T13:45:29.198Z,152406.03
2022-09-01T13:56:00.871Z,152442.47
2022-09-01T14:01:05.413Z,153434.41
2022-09-01T14:06:12.511Z,152970.09
2022-09-01T14:11:20.300Z,152459.47
2022-09-01T14:16:24.981Z,152398.22
2022-09-01T14:21:31.822Z,152062.50
2022-09-01T14:26:36.546Z,152749.81
2022-09-01T14:31:40.707Z,153104.38
2022-09-01T14:36:48.027Z,153217.84
2022-09-01T14:41:53.609Z,153330.03
2022-09-01T14:46:59.571Z,153237.41
2022-09-01T14:52:10.753Z,152752.47
2022-09-01T14:57:37.860Z,152112.00
2022-09-01T15:02:43.922Z,151677.78
2022-09-01T15:07:51.048Z,151364.81
2022-09-01T15:12:58.350Z,151150.72
2022-09-01T15:18:03.855Z,151110.50
2022-09-01T15:23:10.522Z,151142.94
2022-09-01T15:28:15.606Z,151267.50
2022-09-01T15:33:20.638Z,151325.91
2022-09-01T15:38:30.529Z,151288.25
2022-09-01T15:43:35.962Z,151021.00
2022-09-01T15:48:40.334Z,150974.34
2022-09-01T15:53:46.256Z,150961.34
2022-09-01T15:59:07.482Z,150908.22
2022-09-01T16:04:19.140Z,150873.19
2022-09-01T16:09:27.857Z,150893.94
2022-09-01T16:14:32.461Z,150908.22
2022-09-01T16:19:49.676Z,150917.25
2022-09-01T16:24:58.367Z,150917.25
2022-09-01T16:30:07.120Z,150893.94
2022-09-01T16:35:11.761Z,150816.13
2022-09-01T16:40:31.513Z,150733.19
2022-09-01T16:45:48.079Z,150696.94
2022-09-01T16:50:59.643Z,150650.31
2022-09-01T16:56:09.453Z,150569.94
2022-09-01T17:01:24.676Z,150500.06
2022-09-01T17:06:33.972Z,150444.41
2022-09-01T17:11:49.238Z,150396.47
2022-09-01T17:16:56.875Z,150418.53
2022-09-01T17:22:06.819Z,150369.31
2022-09-01T17:27:20.154Z,150280.00
2022-09-01T17:32:54.243Z,150259.28
2022-09-01T17:38:06.187Z,150207.53
2022-09-01T17:43:26.627Z,150182.97
2022-09-01T17:48:41.169Z,150137.72
2022-09-01T17:53:58.344Z,150142.84
2022-09-01T17:59:12.228Z,150107.94
2022-09-01T18:04:41.098Z,150091.13
2022-09-01T18:09:50.995Z,150111.81
2022-09-01T18:15:09.165Z,150117.00
2022-09-01T18:20:21.488Z,150104.09
2022-09-01T18:25:30.387Z,150067.84
2022-09-01T18:30:53.515Z,150060.13
2022-09-01T18:36:09.421Z,150078.19
2022-09-01T18:41:35.979Z,150071.75
2022-09-01T18:46:49.886Z,150115.72
2022-09-01T18:52:09.702Z,150124.75
2022-09-01T18:57:21.341Z,150124.75
2022-09-01T19:02:40.791Z,150074.34
2022-09-01T19:07:55.826Z,150069.13
2022-09-01T19:13:10.111Z,150056.22
2022-09-01T19:18:26.276Z,150038.06
2022-09-01T19:23:41.887Z,149998.00
2022-09-01T19:28:50.813Z,149907.50
2022-09-01T19:34:00.658Z,149902.34
2022-09-01T19:39:07.377Z,149858.41
2022-09-01T19:44:21.619Z,149850.63
2022-09-01T19:49:39.872Z,149809.28
2022-09-01T19:54:52.486Z,149791.22
2022-09-01T20:00:06.151Z,149752.41
2022-09-01T20:05:24.398Z,149709.78
2022-09-01T20:10:51.612Z,149681.38
2022-09-01T20:16:09.962Z,149625.81
2022-09-01T20:21:21.294Z,149593.53
2022-09-01T20:26:33.110Z,149601.28
2022-09-01T20:31:42.181Z,149584.53
2022-09-01T20:36:52.561Z,149557.41
2022-09-01T20:42:01.637Z,149553.53
2022-09-01T20:47:07.852Z,149572.91
2022-09-01T20:52:18.393Z,149539.31
2022-09-01T20:57:34.675Z,149507.09
2022-09-01T21:02:53.872Z,149469.63
2022-09-01T21:08:18.934Z,149452.88
2022-09-01T21:13:37.377Z,149393.44
2022-09-01T21:18:52.160Z,149403.75
2022-09-01T21:23:58.492Z,149386.94
2022-09-01T21:29:16.416Z,149379.25
2022-09-01T21:34:20.869Z,149358.59
2022-09-01T21:39:27.231Z,149339.22
2022-09-01T21:44:34.257Z,149312.16
2022-09-01T21:49:38.738Z,149245.06
2022-09-01T21:54:44.848Z,149250.22
2022-09-01T21:59:49.529Z,149274.72
2022-09-01T22:04:53.873Z,149283.75
2022-09-01T22:10:00.063Z,149283.75
2022-09-01T22:15:06.173Z,149277.28
2022-09-01T22:20:13.222Z,149279.91
2022-09-01T22:25:24.160Z,149246.34
2022-09-01T22:30:29.445Z,149269.59
2022-09-01T22:35:34.478Z,149250.22
2022-09-01T22:40:48.263Z,149250.22
2022-09-01T22:45:53.922Z,149194.78
2022-09-01T22:50:58.191Z,149202.47
2022-09-01T22:56:11.624Z,149184.47
2022-09-01T23:01:21.537Z,149174.13
2022-09-01T23:06:28.024Z,149152.22
2022-09-01T23:11:34.229Z,149136.72
2022-09-01T23:16:39.155Z,149147.03
2022-09-01T23:21:43.782Z,149150.94
2022-09-01T23:26:50.755Z,149150.94
2022-09-01T23:31:55.955Z,149112.22
2022-09-01T23:37:01.005Z,149095.50
2022-09-01T23:42:07.401Z,149095.50
2022-09-01T23:47:12.126Z,149043.88
2022-09-01T23:52:16.903Z,149047.72
2022-09-01T23:57:23.033Z,149027.09
